createdAt,value
2022-12-07T00:01:30.731Z,101708.97
2022-12-07T00:04:05.574Z,101698.88
2022-12-07T00:06:34.432Z,101699.13
2022-12-07T00:09:07.599Z,101700.75
2022-12-07T00:11:35.966Z,101701.56
2022-12-07T00:14:07.483Z,101697.84
2022-12-07T00:16:36.859Z,101701.34
2022-12-07T00:19:05.972Z,101698.56
2022-12-07T00:21:35.363Z,101696.69
2022-12-07T00:24:04.727Z,101698.50
2022-12-07T00:26:35.723Z,101698.41
2022-12-07T00:29:06.182Z,101698.41
2022-12-07T00:31:39.613Z,101696.59
2022-12-07T00:34:08.032Z,101695.66
2022-12-07T00:36:35.959Z,101692.13
2022-12-07T00:39:04.839Z,101692.13
2022-12-07T00:41:36.134Z,101691.25
2022-12-07T00:44:04.380Z,101685.88
2022-12-07T00:46:32.730Z,101684.06
2022-12-07T00:49:00.704Z,101680.53
2022-12-07T00:51:28.997Z,101682.34
2022-12-07T00:53:57.253Z,101683.31
2022-12-07T00:56:27.251Z,101675.25
2022-12-07T00:58:58.435Z,101670.88
2022-12-07T01:01:27.807Z,101668.25
2022-12-07T01:03:56.280Z,101672.72
2022-12-07T01:06:26.126Z,101672.72
2022-12-07T01:08:54.835Z,101679.03
2022-12-07T01:11:25.282Z,101677.28
2022-12-07T01:13:54.772Z,101675.56
2022-12-07T01:16:26.113Z,101675.56
2022-12-07T01:18:56.991Z,101681.88
2022-12-07T01:21:27.276Z,101679.19
2022-12-07T01:23:55.912Z,101680.16
2022-12-07T01:26:25.427Z,101681.97
2022-12-07T01:28:55.920Z,101693.69
2022-12-07T01:31:27.517Z,101686.50
2022-12-07T01:33:57.945Z,101683.84
2022-12-07T01:36:28.018Z,101686.50
2022-12-07T01:38:58.994Z,101693.78
2022-12-07T01:41:29.205Z,101688.31
2022-12-07T01:44:19.786Z,101689.34
2022-12-07T01:46:50.574Z,101683.97
2022-12-07T01:49:25.384Z,101685.78
2022-12-07T01:51:59.139Z,101671.63
2022-12-07T01:54:27.685Z,101675.09
2022-12-07T01:56:58.527Z,101669.88
2022-12-07T01:59:28.005Z,101677.91
2022-12-07T02:01:58.344Z,101670.81
2022-12-07T02:04:26.652Z,101672.56
2022-12-07T02:06:56.426Z,101674.38
2022-12-07T02:09:24.391Z,101679.81
2022-12-07T02:11:53.230Z,101672.72
2022-12-07T02:14:23.294Z,101668.25
2022-12-07T02:17:06.033Z,101669.16
2022-12-07T02:20:23.454Z,101661.22
2022-12-07T02:23:15.001Z,101664.03
2022-12-07T02:26:05.042Z,101667.53
2022-12-07T02:28:37.282Z,101671.16
2022-12-07T02:31:08.326Z,101669.38
2022-12-07T02:33:40.215Z,101666.81
2022-12-07T02:36:12.988Z,101673.97
2022-12-07T02:38:47.517Z,101681.13
2022-12-07T02:41:22.180Z,101681.13
2022-12-07T02:43:54.242Z,101667.81
2022-12-07T02:46:27.682Z,101674.88
2022-12-07T02:48:57.704Z,101665.28
2022-12-07T02:51:25.733Z,101667.94
2022-12-07T02:53:53.766Z,101664.50
2022-12-07T02:56:29.863Z,101667.94
2022-12-07T02:59:11.204Z,101660.00
2022-12-07T03:01:52.241Z,101667.19
2022-12-07T03:04:36.199Z,101670.72
2022-12-07T03:07:08.782Z,101667.19
2022-12-07T03:09:45.811Z,101672.53
2022-12-07T03:12:19.968Z,101670.81
2022-12-07T03:14:51.998Z,101673.47
2022-12-07T03:17:27.055Z,101671.72
2022-12-07T03:20:01.331Z,101675.34
2022-12-07T03:22:32.840Z,101674.50
2022-12-07T03:25:05.535Z,101670.94
2022-12-07T03:27:39.399Z,101670.09
2022-12-07T03:30:10.857Z,101665.59
2022-12-07T03:32:45.858Z,101663.94
2022-12-07T03:35:20.023Z,101667.47
2022-12-07T03:37:54.181Z,101666.59
2022-12-07T03:40:28.149Z,101656.75
2022-12-07T03:43:00.767Z,101647.94
2022-12-07T03:45:34.302Z,101642.59
2022-12-07T03:48:11.363Z,101647.09
2022-12-07T03:50:46.366Z,101646.22
2022-12-07T03:53:18.942Z,101647.09
2022-12-07T03:55:49.000Z,101649.78
2022-12-07T03:58:22.263Z,101646.22
2022-12-07T04:00:51.701Z,101652.44
2022-12-07T04:03:21.168Z,101648.91
2022-12-07T04:05:49.577Z,101645.41
2022-12-07T04:08:17.635Z,101650.78
2022-12-07T04:10:45.729Z,101645.41
2022-12-07T04:13:13.661Z,101653.44
2022-12-07T04:15:41.654Z,101644.56
2022-12-07T04:18:09.617Z,101638.34
2022-12-07T04:20:38.917Z,101650.88
2022-12-07T04:23:06.948Z,101639.28
2022-12-07T04:25:34.840Z,101641.97
2022-12-07T04:28:02.728Z,101641.97
2022-12-07T04:30:33.768Z,101634.84
2022-12-07T04:33:01.746Z,101647.31
2022-12-07T04:35:29.784Z,101641.06
2022-12-07T04:37:59.041Z,101636.66
2022-12-07T04:40:26.979Z,101646.50
2022-12-07T04:42:54.882Z,101644.78
2022-12-07T04:45:22.857Z,101647.47
2022-12-07T04:47:50.731Z,101647.47
2022-12-07T04:50:18.803Z,101648.38
2022-12-07T04:52:46.830Z,101646.66
2022-12-07T04:55:16.305Z,101632.31
2022-12-07T04:57:44.234Z,101635.00
2022-12-07T05:00:13.077Z,101627.91
2022-12-07T05:02:40.916Z,101635.00
2022-12-07T05:05:09.576Z,101628.78
2022-12-07T05:07:37.611Z,101633.22
2022-12-07T05:10:08.900Z,101626.09
2022-12-07T05:12:38.277Z,101625.34
2022-12-07T05:15:07.064Z,101626.19
2022-12-07T05:17:35.082Z,101625.34
2022-12-07T05:20:03.127Z,101630.69
2022-12-07T05:22:31.276Z,101631.56
2022-12-07T05:24:59.260Z,101628.88
2022-12-07T05:27:27.233Z,101625.38
2022-12-07T05:29:59.434Z,101629.88
2022-12-07T05:32:27.795Z,101627.19
2022-12-07T05:34:56.773Z,101633.59
2022-12-07T05:37:24.712Z,101628.25
2022-12-07T05:39:55.466Z,101630.97
2022-12-07T05:42:23.644Z,101633.59
2022-12-07T05:44:51.607Z,101630.03
2022-12-07T05:47:20.990Z,101625.63
2022-12-07T05:49:48.982Z,101636.41
2022-12-07T05:52:17.559Z,101629.25
2022-12-07T05:54:45.540Z,101630.09
2022-12-07T05:57:13.658Z,101627.53
2022-12-07T05:59:40.619Z,101631.13
2022-12-07T06:02:10.428Z,101630.25
2022-12-07T06:04:42.140Z,101627.66
2022-12-07T06:07:11.077Z,101630.25
2022-12-07T06:09:38.987Z,101628.53
2022-12-07T06:12:25.373Z,101618.78
2022-12-07T06:14:53.442Z,101619.53
2022-12-07T06:17:21.358Z,101628.63
2022-12-07T06:19:50.999Z,101625.94
2022-12-07T06:22:19.430Z,101632.16
2022-12-07T06:24:47.741Z,101627.75
2022-12-07T06:27:16.009Z,101628.66
2022-12-07T06:29:44.016Z,101628.09
2022-12-07T06:32:16.743Z,101627.88
2022-12-07T06:34:44.701Z,101626.72
2022-12-07T06:37:14.179Z,101624.69
2022-12-07T06:39:42.389Z,101625.41
2022-12-07T06:42:10.395Z,101631.53
2022-12-07T06:44:38.349Z,101626.16
2022-12-07T06:47:38.944Z,101625.19
2022-12-07T06:49:54.731Z,101638.44
2022-12-07T06:52:24.290Z,101638.25
2022-12-07T06:54:52.280Z,101638.22
2022-12-07T06:57:21.284Z,101640.03
2022-12-07T06:59:49.194Z,101636.47
2022-12-07T07:02:17.362Z,101634.72
2022-12-07T07:04:45.428Z,101646.28
2022-12-07T07:07:13.402Z,101632.84
2022-12-07T07:09:42.744Z,101641.84
2022-12-07T07:12:10.640Z,101640.94
2022-12-07T07:14:38.615Z,101635.59
2022-12-07T07:17:06.756Z,101641.84
2022-12-07T07:19:34.760Z,101643.63
2022-12-07T07:22:02.687Z,101640.06
2022-12-07T07:24:30.791Z,101640.06
2022-12-07T07:27:00.122Z,101641.03
2022-12-07T07:29:28.082Z,101646.38
2022-12-07T07:31:56.012Z,101643.69
2022-12-07T07:34:24.020Z,101638.34
2022-12-07T07:36:51.909Z,101648.19
2022-12-07T07:39:19.821Z,101645.41
2022-12-07T07:41:48.551Z,101641.97
2022-12-07T07:44:17.932Z,101651.72
2022-12-07T07:46:45.847Z,101647.31
2022-12-07T07:49:13.954Z,101644.66
2022-12-07T07:51:42.010Z,101649.13
2022-12-07T07:54:09.935Z,101648.28
2022-12-07T07:56:37.948Z,101645.59
2022-12-07T07:59:05.931Z,101650.94
2022-12-07T08:01:35.341Z,101643.84
2022-12-07T08:04:03.293Z,101643.91
2022-12-07T08:06:32.595Z,101645.72
2022-12-07T08:09:00.917Z,101643.84
2022-12-07T08:11:28.870Z,101659.84
2022-12-07T08:13:56.747Z,101653.53
2022-12-07T08:16:24.812Z,101654.53
2022-12-07T08:18:54.201Z,101656.28
2022-12-07T08:21:22.533Z,101658.06
2022-12-07T08:23:50.556Z,101657.16
2022-12-07T08:26:18.680Z,101667.91
2022-12-07T08:28:47.098Z,101662.66
2022-12-07T08:31:18.226Z,101664.47
2022-12-07T08:33:47.571Z,101670.75
2022-12-07T08:36:19.931Z,101677.03
2022-12-07T08:39:22.594Z,101672.53
2022-12-07T08:41:36.466Z,101676.97
2022-12-07T08:44:04.879Z,101670.75
2022-12-07T08:46:38.734Z,101675.16
2022-12-07T08:49:11.656Z,101663.66
2022-12-07T08:51:42.243Z,101662.78
2022-12-07T08:54:13.506Z,101659.16
2022-12-07T08:56:41.720Z,101666.31
2022-12-07T08:59:09.858Z,101665.47
2022-12-07T09:01:37.834Z,101657.44
2022-12-07T09:04:05.908Z,101668.94
2022-12-07T09:06:34.154Z,101664.50
2022-12-07T09:09:04.589Z,101666.19
2022-12-07T09:11:32.518Z,101664.38
2022-12-07T09:14:00.496Z,101659.88
2022-12-07T09:16:28.674Z,101668.78
2022-12-07T09:18:56.697Z,101670.53
2022-12-07T09:21:24.795Z,101663.38
2022-12-07T09:23:52.745Z,101666.28
2022-12-07T09:26:22.168Z,101665.53
2022-12-07T09:28:50.088Z,101670.91
2022-12-07T09:31:26.243Z,101674.34
2022-12-07T09:33:58.348Z,101672.47
2022-12-07T09:36:26.678Z,101667.03
2022-12-07T09:38:54.839Z,101671.41
2022-12-07T09:41:26.169Z,101675.81
2022-12-07T09:43:54.998Z,101666.81
2022-12-07T09:46:25.103Z,101672.34
2022-12-07T09:48:53.376Z,101661.66
2022-12-07T09:51:24.592Z,101670.59
2022-12-07T09:53:55.267Z,101661.66
2022-12-07T09:56:25.912Z,101662.50
2022-12-07T09:59:00.105Z,101658.88
2022-12-07T10:01:31.739Z,101648.28
2022-12-07T10:04:08.793Z,101640.16
2022-12-07T10:06:36.827Z,101649.91
2022-12-07T10:09:10.829Z,101648.09
2022-12-07T10:12:08.078Z,101653.09
2022-12-07T10:17:34.209Z,101647.47
2022-12-07T10:20:21.777Z,101643.78
2022-12-07T10:23:00.963Z,101650.94
2022-12-07T10:25:34.643Z,101641.03
2022-12-07T10:28:13.034Z,101643.69
2022-12-07T10:30:53.968Z,101633.00
2022-12-07T10:33:37.297Z,101634.72
2022-12-07T10:36:20.437Z,101629.38
2022-12-07T10:38:50.493Z,101613.31
2022-12-07T10:41:19.995Z,101618.63
2022-12-07T10:43:54.720Z,101619.94
2022-12-07T10:46:54.621Z,101618.03
2022-12-07T10:49:56.193Z,101617.09
2022-12-07T10:52:40.056Z,101618.53
2022-12-07T10:55:20.773Z,101610.28
2022-12-07T10:58:02.985Z,101610.16
2022-12-07T11:00:38.495Z,101607.34
2022-12-07T11:03:32.227Z,101604.44
2022-12-07T11:06:14.402Z,101600.75
2022-12-07T11:09:00.496Z,101589.06
2022-12-07T11:11:35.762Z,101589.84
2022-12-07T11:14:18.491Z,101584.41
2022-12-07T11:16:57.889Z,101595.94
2022-12-07T11:19:52.295Z,101592.31
2022-12-07T11:22:25.537Z,101593.09
2022-12-07T11:25:04.867Z,101593.88
2022-12-07T11:27:39.677Z,101577.91
2022-12-07T11:30:19.208Z,101572.41
2022-12-07T11:32:59.213Z,101573.28
2022-12-07T11:35:38.790Z,101565.16
2022-12-07T11:38:14.507Z,101576.59
2022-12-07T11:40:44.116Z,101569.41
2022-12-07T11:43:20.177Z,101569.28
2022-12-07T11:45:53.773Z,101571.00
2022-12-07T11:48:31.271Z,101563.84
2022-12-07T11:51:01.466Z,101564.53
2022-12-07T11:53:37.807Z,101562.69
2022-12-07T11:56:10.783Z,101560.00
2022-12-07T11:58:46.748Z,101554.78
2022-12-07T12:01:26.313Z,101559.47
2022-12-07T12:04:00.184Z,101552.34
2022-12-07T12:06:28.145Z,101551.19
2022-12-07T12:15:10.438Z,101540.94
2022-12-07T12:18:03.303Z,101543.63
2022-12-07T12:20:38.104Z,101543.41
2022-12-07T12:23:13.838Z,101532.47
2022-12-07T12:25:45.139Z,101531.31
2022-12-07T12:28:25.381Z,101533.78
2022-12-07T12:31:09.067Z,101525.50
2022-12-07T12:33:44.514Z,101519.91
2022-12-07T12:36:29.378Z,101518.91
2022-12-07T12:39:15.836Z,101524.19
2022-12-07T12:42:09.956Z,101528.44
2022-12-07T12:45:21.665Z,101514.97
2022-12-07T12:47:57.909Z,101516.63
2022-12-07T12:50:29.578Z,101513.00
2022-12-07T12:53:04.184Z,101504.03
2022-12-07T12:55:53.276Z,101518.13
2022-12-07T12:58:36.163Z,101508.22
2022-12-07T13:01:49.468Z,101500.00
2022-12-07T13:04:50.130Z,101494.56
2022-12-07T13:08:05.876Z,101492.66
2022-12-07T13:10:42.544Z,101481.81
2022-12-07T13:13:36.598Z,101477.25
2022-12-07T13:16:39.643Z,101474.56
2022-12-07T13:19:44.085Z,101478.75
2022-12-07T13:22:45.301Z,101473.31
2022-12-07T13:25:21.496Z,101476.75
2022-12-07T13:27:58.334Z,101470.31
2022-12-07T13:30:26.720Z,101471.19
2022-12-07T13:32:56.857Z,101465.63
2022-12-07T13:35:34.276Z,101464.53
2022-12-07T13:38:06.094Z,101458.16
2022-12-07T13:40:34.215Z,101455.31
2022-12-07T13:43:07.248Z,101443.66
2022-12-07T13:45:50.932Z,101445.38
2022-12-07T13:48:26.176Z,101443.66
2022-12-07T13:50:57.491Z,101444.50
2022-12-07T13:53:25.826Z,101444.44
2022-12-07T13:55:54.943Z,101440.81
2022-12-07T13:58:24.679Z,101432.69
2022-12-07T14:00:53.021Z,101435.28
2022-12-07T14:03:33.288Z,101438.84
2022-12-07T14:06:26.269Z,101428.03
2022-12-07T14:09:18.875Z,101425.34
2022-12-07T14:11:47.300Z,101430.53
2022-12-07T14:14:20.487Z,101416.28
2022-12-07T14:16:59.244Z,101416.19
2022-12-07T14:19:48.884Z,101417.06
2022-12-07T14:22:39.199Z,101424.16
2022-12-07T14:25:24.406Z,101430.38
2022-12-07T14:27:56.943Z,101440.22
2022-12-07T14:30:28.638Z,101433.13
2022-12-07T14:33:01.098Z,101436.59
2022-12-07T14:35:30.169Z,101425.09
2022-12-07T14:38:01.163Z,101416.19
2022-12-07T14:40:31.452Z,101416.19
2022-12-07T14:43:03.480Z,101418.97
2022-12-07T14:45:33.055Z,101425.97
2022-12-07T14:53:49.873Z,101415.28
2022-12-07T14:56:21.287Z,101410.78
2022-12-07T14:58:49.500Z,101414.22
2022-12-07T15:01:18.781Z,101415.06
2022-12-07T15:03:46.862Z,101415.97
2022-12-07T15:06:19.502Z,101409.69
2022-12-07T15:08:47.819Z,101412.38
2022-12-07T15:11:16.194Z,101410.53
2022-12-07T15:14:02.354Z,101403.28
2022-12-07T15:16:52.339Z,101409.53
2022-12-07T15:19:28.348Z,101402.34
2022-12-07T15:21:57.660Z,101406.75
2022-12-07T15:24:26.151Z,101408.47
2022-12-07T15:26:54.327Z,101406.59
2022-12-07T15:29:23.862Z,101405.63
2022-12-07T15:31:57.024Z,101392.06
2022-12-07T15:34:27.563Z,101393.78
2022-12-07T15:36:55.655Z,101392.75
2022-12-07T15:39:23.729Z,101393.63
2022-12-07T15:41:51.804Z,101389.13
2022-12-07T15:44:38.083Z,101390.06
2022-12-07T15:47:07.991Z,101387.41
2022-12-07T15:49:35.918Z,101383.75
2022-12-07T15:52:06.503Z,101380.22
2022-12-07T15:54:34.847Z,101381.19
2022-12-07T15:57:02.849Z,101374.06
2022-12-07T15:59:31.446Z,101371.31
2022-12-07T16:01:59.734Z,101363.34
2022-12-07T16:04:34.758Z,101366.03
2022-12-07T16:07:02.924Z,101362.41
2022-12-07T16:09:30.858Z,101365.09
2022-12-07T16:11:59.097Z,101359.75
2022-12-07T16:14:27.187Z,101360.66
2022-12-07T16:16:58.544Z,101365.97
2022-12-07T16:19:26.732Z,101360.66
2022-12-07T16:21:56.387Z,101370.47
2022-12-07T16:24:25.153Z,101363.34
2022-12-07T16:26:53.515Z,101355.31
2022-12-07T16:29:23.053Z,101346.41
2022-12-07T16:31:51.524Z,101356.25
2022-12-07T16:34:19.811Z,101354.56
2022-12-07T16:37:03.575Z,101349.19
2022-12-07T16:39:34.107Z,101347.38
2022-12-07T16:42:02.328Z,101350.16
2022-12-07T16:44:31.574Z,101350.16
2022-12-07T16:46:59.563Z,101350.22
2022-12-07T16:49:27.564Z,101352.81
2022-12-07T16:52:18.241Z,101349.25
2022-12-07T16:54:45.163Z,101344.84
2022-12-07T16:57:19.987Z,101340.34
2022-12-07T16:59:50.381Z,101336.81
2022-12-07T17:02:18.327Z,101336.91
2022-12-07T17:04:46.352Z,101336.91
2022-12-07T17:07:16.624Z,101335.97
2022-12-07T17:09:45.899Z,101336.91
2022-12-07T17:12:15.147Z,101340.34
2022-12-07T17:15:00.937Z,101330.59
2022-12-07T17:17:29.259Z,101335.00
2022-12-07T17:19:59.507Z,101335.00
2022-12-07T17:22:27.466Z,101327.81
2022-12-07T17:24:56.771Z,101331.47
2022-12-07T17:27:24.944Z,101325.34
2022-12-07T17:29:52.884Z,101330.59
2022-12-07T17:32:20.852Z,101321.78
2022-12-07T17:34:48.869Z,101325.34
2022-12-07T17:37:17.042Z,101322.66
2022-12-07T17:39:44.947Z,101324.56
2022-12-07T17:42:34.449Z,101319.09
2022-12-07T17:45:03.741Z,101317.38
2022-12-07T17:47:31.905Z,101324.44
2022-12-07T17:50:06.393Z,101311.16
2022-12-07T17:52:52.507Z,101302.25
2022-12-07T17:55:21.646Z,101303.97
2022-12-07T17:57:51.859Z,101299.56
2022-12-07T18:00:20.660Z,101296.91
2022-12-07T18:02:48.700Z,101292.41
2022-12-07T18:05:18.776Z,101283.50
2022-12-07T18:07:46.776Z,101283.50
2022-12-07T18:10:14.760Z,101292.41
2022-12-07T18:12:46.290Z,101279.09
2022-12-07T18:15:19.400Z,101289.72
2022-12-07T18:17:47.528Z,101283.50
2022-12-07T18:20:15.506Z,101285.22
2022-12-07T18:22:43.416Z,101282.53
2022-12-07T18:25:11.318Z,101275.38
2022-12-07T18:27:40.922Z,101270.00
2022-12-07T18:30:10.703Z,101273.53
2022-12-07T18:32:40.053Z,101270.88
2022-12-07T18:35:08.933Z,101273.53
2022-12-07T18:37:36.896Z,101268.19
2022-12-07T18:40:05.624Z,101260.09
2022-12-07T18:42:35.002Z,101259.22
2022-12-07T18:45:03.621Z,101259.22
2022-12-07T18:47:31.818Z,101262.66
2022-12-07T18:50:01.213Z,101259.97
2022-12-07T18:52:29.186Z,101259.97
2022-12-07T18:54:57.196Z,101259.13
2022-12-07T18:57:25.166Z,101263.53
2022-12-07T18:59:53.082Z,101262.66
2022-12-07T19:02:21.134Z,101250.22
2022-12-07T19:04:51.784Z,101256.44
2022-12-07T19:07:21.137Z,101251.88
2022-12-07T19:09:49.210Z,101251.00
2022-12-07T19:12:17.308Z,101249.19
2022-12-07T19:14:45.260Z,101249.19
2022-12-07T19:17:14.697Z,101251.88
2022-12-07T19:19:45.298Z,101243.91
2022-12-07T19:22:14.832Z,101244.69
2022-12-07T19:24:46.464Z,101242.00
2022-12-07T19:27:15.534Z,101242.88
2022-12-07T19:29:44.183Z,101250.91
2022-12-07T19:32:12.284Z,101249.94
2022-12-07T19:34:42.076Z,101245.56
2022-12-07T19:37:11.625Z,101248.22
2022-12-07T19:39:40.029Z,101241.84
2022-12-07T19:42:09.652Z,101249.00
2022-12-07T19:44:37.857Z,101247.19
2022-12-07T19:47:06.638Z,101251.59
2022-12-07T19:49:36.403Z,101244.41
2022-12-07T19:52:08.056Z,101241.63
2022-12-07T19:54:37.497Z,101240.78
2022-12-07T19:57:05.917Z,101242.59
2022-12-07T19:59:36.124Z,101237.13
2022-12-07T20:02:06.396Z,101232.66
2022-12-07T20:04:35.865Z,101242.44
2022-12-07T20:07:04.493Z,101221.94
2022-12-07T20:09:32.548Z,101221.75
2022-12-07T20:12:17.740Z,101221.00
2022-12-07T20:14:47.789Z,101213.81
2022-12-07T20:17:15.953Z,101212.00
2022-12-07T20:19:43.928Z,101201.03
2022-12-07T20:22:14.388Z,101202.56
2022-12-07T20:24:42.381Z,101201.66
2022-12-07T20:27:10.351Z,101194.47
2022-12-07T20:29:38.315Z,101187.28
2022-12-07T20:32:07.895Z,101186.31
2022-12-07T20:34:35.838Z,101182.69
2022-12-07T20:37:03.771Z,101183.53
2022-12-07T20:39:31.699Z,101179.94
2022-12-07T20:42:17.176Z,101170.06
2022-12-07T20:44:45.130Z,101166.44
2022-12-07T20:47:14.511Z,101170.81
2022-12-07T20:49:42.747Z,101163.75
2022-12-07T20:52:10.962Z,101154.69
2022-12-07T20:54:38.829Z,101170.75
2022-12-07T20:57:09.570Z,101159.94
2022-12-07T20:59:41.509Z,101159.94
2022-12-07T21:02:13.059Z,101161.66
2022-12-07T21:04:42.848Z,101159.84
2022-12-07T21:07:10.821Z,101166.94
2022-12-07T21:09:39.049Z,101158.91
2022-12-07T21:12:11.401Z,101166.84
2022-12-07T21:14:41.501Z,101162.31
2022-12-07T21:17:09.555Z,101158.78
2022-12-07T21:19:38.005Z,101142.72
2022-12-07T21:22:07.435Z,101152.47
2022-12-07T21:24:36.144Z,101149.78
2022-12-07T21:27:04.129Z,101145.31
2022-12-07T21:29:43.134Z,101143.38
2022-12-07T21:32:13.481Z,101140.81
2022-12-07T21:34:41.490Z,101154.97
2022-12-07T21:37:11.119Z,101149.59
2022-12-07T21:39:39.121Z,101151.44
2022-12-07T21:42:07.235Z,101138.03
2022-12-07T21:44:35.665Z,101135.28
2022-12-07T21:47:03.779Z,101132.59
2022-12-07T21:49:34.695Z,101126.28
2022-12-07T21:52:02.620Z,101117.38
2022-12-07T21:54:31.967Z,101123.59
2022-12-07T21:56:59.894Z,101119.94
2022-12-07T21:59:27.878Z,101117.25
2022-12-07T22:01:55.987Z,101117.25
2022-12-07T22:04:25.954Z,101118.97
2022-12-07T22:06:54.642Z,101119.09
2022-12-07T22:09:23.585Z,101110.19
2022-12-07T22:11:52.978Z,101116.41
2022-12-07T22:14:38.209Z,101123.47
2022-12-07T22:17:06.310Z,101121.66
2022-12-07T22:19:34.267Z,101105.56
2022-12-07T22:22:04.743Z,101116.31
2022-12-07T22:24:33.947Z,101112.75
2022-12-07T22:27:03.272Z,101118.13
2022-12-07T22:29:31.261Z,101111.03
2022-12-07T22:31:59.247Z,101112.88
2022-12-07T22:34:27.277Z,101112.88
2022-12-07T22:36:55.176Z,101108.47
2022-12-07T22:39:23.127Z,101106.66
2022-12-07T22:41:51.040Z,101097.75
2022-12-07T22:44:20.313Z,101100.50
2022-12-07T22:46:48.384Z,101088.94
2022-12-07T22:49:16.462Z,101091.59
2022-12-07T22:51:45.020Z,101080.03
2022-12-07T22:54:17.123Z,101082.72
2022-12-07T22:56:45.583Z,101076.56
2022-12-07T22:59:14.946Z,101071.13
2022-12-07T23:01:44.496Z,101071.13
2022-12-07T23:04:12.510Z,101061.34
2022-12-07T23:06:40.662Z,101065.84
2022-12-07T23:09:11.711Z,101067.66
2022-12-07T23:11:59.203Z,101063.28
2022-12-07T23:14:29.920Z,101071.22
2022-12-07T23:16:59.782Z,101058.88
2022-12-07T23:19:28.516Z,101057.06
2022-12-07T23:21:56.679Z,101057.13
2022-12-07T23:24:24.648Z,101054.44
2022-12-07T23:26:55.780Z,101056.28
2022-12-07T23:29:23.803Z,101050.91
2022-12-07T23:31:51.800Z,101040.19
2022-12-07T23:34:21.483Z,101041.06
2022-12-07T23:36:49.364Z,101037.50
2022-12-07T23:39:17.347Z,101039.53
2022-12-07T23:41:47.713Z,101035.91
2022-12-07T23:44:18.245Z,101038.66
2022-12-07T23:46:46.424Z,101035.91
2022-12-07T23:49:14.356Z,101030.63
2022-12-07T23:51:43.654Z,101025.38
2022-12-07T23:54:12.491Z,101024.53
2022-12-07T23:56:40.656Z,101021.84
2022-12-07T23:59:08.748Z,101021.06
